Time;durP1;ratioP1;P1;durP2;ratioP2;P2;SDS_P1;SDS_P2;PMS_P1;PMS_P2;Temp;Humidity;BMP_temperature;BMP_pressure;BME280_temperature;BME280_humidity;BME280_pressure;Samples;Min_cycle;Max_cycle;Signal;HPM_P1;HPM_P2
2023/12/10 00:00:43;;;;;;;13.53;1.77;;;;;;;;;;5043959;28;20662;-65
2023/12/10 00:03:10;;;;;;;10.37;2.03;;;;;;;;;;5045149;28;20212;-65
2023/12/10 00:05:37;;;;;;;11.73;2.50;;;;;;;;;;5043674;28;20212;-65
2023/12/10 00:08:05;;;;;;;9.40;1.43;;;;;;;;;;5047410;28;20208;-66
2023/12/10 00:10:32;;;;;;;7.30;2.17;;;;;;;;;;5047363;28;20595;-65
2023/12/10 00:12:59;;;;;;;10.27;2.00;;;;;;;;;;5046734;28;20218;-65
2023/12/10 00:15:26;;;;;;;10.27;1.80;;;;;;;;;;5036900;28;20219;-65
2023/12/10 00:17:53;;;;;;;10.00;2.03;;;;;;;;;;5045232;28;20242;-65
2023/12/10 00:20:21;;;;;;;12.40;1.97;;;;;;;;;;5044262;28;20601;-65
2023/12/10 00:22:48;;;;;;;9.37;2.20;;;;;;;;;;5046714;28;20265;-65
2023/12/10 00:25:16;;;;;;;10.80;2.20;;;;;;;;;;5045363;28;20682;-65
2023/12/10 00:27:44;;;;;;;8.70;1.50;;;;;;;;;;5046623;28;20211;-65
2023/12/10 00:30:11;;;;;;;7.17;1.40;;;;;;;;;;5046909;28;20204;-65
2023/12/10 00:32:38;;;;;;;15.57;2.10;;;;;;;;;;5046945;28;20370;-65
2023/12/10 00:35:06;;;;;;;13.10;2.00;;;;;;;;;;5039746;28;20199;-65
2023/12/10 00:37:33;;;;;;;11.30;1.97;;;;;;;;;;5046705;28;20264;-64
2023/12/10 00:40:00;;;;;;;8.00;1.90;;;;;;;;;;5045417;28;20231;-65
2023/12/10 00:42:29;;;;;;;15.50;2.47;;;;;;;;;;5035836;28;20269;-64
2023/12/10 00:44:56;;;;;;;10.30;1.87;;;;;;;;;;5040900;28;20222;-63
2023/12/10 00:47:23;;;;;;;12.67;2.30;;;;;;;;;;5046625;28;20212;-63
2023/12/10 00:49:50;;;;;;;12.57;2.57;;;;;;;;;;5045662;28;20207;-63
2023/12/10 00:52:17;;;;;;;13.53;2.53;;;;;;;;;;5032970;28;20201;-64
2023/12/10 00:54:44;;;;;;;7.67;1.97;;;;;;;;;;5031132;28;20242;-64
2023/12/10 00:57:12;;;;;;;8.97;2.60;;;;;;;;;;5046166;28;20203;-64
2023/12/10 00:59:40;;;;;;;13.30;2.63;;;;;;;;;;5046156;28;20231;-66
2023/12/10 01:02:07;;;;;;;16.43;2.50;;;;;;;;;;5034581;28;20212;-64
2023/12/10 01:04:35;;;;;;;13.17;2.43;;;;;;;;;;5037259;28;20214;-64
2023/12/10 01:07:02;;;;;;;14.03;2.40;;;;;;;;;;5046198;28;20609;-64
2023/12/10 01:09:29;;;;;;;12.70;2.73;;;;;;;;;;5045311;28;20214;-64
2023/12/10 01:11:57;;;;;;;13.90;3.47;;;;;;;;;;5041093;28;20227;-64
2023/12/10 01:14:24;;;;;;;16.90;2.83;;;;;;;;;;5040558;28;20204;-65
2023/12/10 01:16:52;;;;;;;11.63;2.53;;;;;;;;;;5031114;28;20608;-64
2023/12/10 01:19:19;;;;;;;15.23;2.73;;;;;;;;;;5031156;28;20200;-65
2023/12/10 01:21:47;;;;;;;19.63;2.40;;;;;;;;;;5041673;28;20638;-65
2023/12/10 01:24:16;;;;;;;17.03;2.27;;;;;;;;;;5037849;28;20285;-65
2023/12/10 01:26:43;;;;;;;17.77;2.90;;;;;;;;;;5045557;28;20231;-64
2023/12/10 01:29:10;;;;;;;7.80;2.07;;;;;;;;;;5045392;28;20211;-64
2023/12/10 01:31:37;;;;;;;18.00;2.67;;;;;;;;;;5045790;28;20200;-64
2023/12/10 01:34:06;;;;;;;17.23;2.67;;;;;;;;;;5043117;28;20211;-65
2023/12/10 01:36:33;;;;;;;14.90;3.13;;;;;;;;;;5045380;28;20207;-65
2023/12/10 01:39:00;;;;;;;17.87;2.73;;;;;;;;;;5036327;28;20240;-64
2023/12/10 01:41:28;;;;;;;15.90;3.20;;;;;;;;;;5036189;28;20227;-64
2023/12/10 01:43:55;;;;;;;21.67;2.93;;;;;;;;;;5037068;28;20279;-64
2023/12/10 01:46:22;;;;;;;19.53;3.33;;;;;;;;;;5045478;28;20210;-65
2023/12/10 01:48:51;;;;;;;14.67;3.30;;;;;;;;;;5045776;28;20721;-64
2023/12/10 01:51:19;;;;;;;13.60;2.93;;;;;;;;;;5044792;28;20227;-65
2023/12/10 01:53:47;;;;;;;17.67;3.63;;;;;;;;;;5035538;28;20235;-64
2023/12/10 01:56:14;;;;;;;18.40;2.80;;;;;;;;;;5026342;28;20208;-64
2023/12/10 01:58:41;;;;;;;24.10;3.53;;;;;;;;;;5036969;28;20207;-65
2023/12/10 02:01:08;;;;;;;22.53;3.70;;;;;;;;;;5043665;28;20235;-63
2023/12/10 02:03:35;;;;;;;14.43;3.47;;;;;;;;;;5042724;28;20752;-63
2023/12/10 02:06:03;;;;;;;11.17;2.80;;;;;;;;;;5045519;28;20349;-63
2023/12/10 02:08:31;;;;;;;14.40;3.47;;;;;;;;;;5044828;28;20234;-66
2023/12/10 02:10:58;;;;;;;12.77;4.23;;;;;;;;;;5043528;28;20211;-64
2023/12/10 02:13:36;;;;;;;21.03;3.80;;;;;;;;;;5044401;28;20218;-64
2023/12/10 02:16:04;;;;;;;19.90;3.17;;;;;;;;;;5042383;28;20322;-63
2023/12/10 02:18:31;;;;;;;18.50;3.63;;;;;;;;;;5044842;28;20218;-64
2023/12/10 02:20:58;;;;;;;20.77;5.10;;;;;;;;;;5040859;28;20219;-64
2023/12/10 02:23:34;;;;;;;18.50;3.97;;;;;;;;;;5030981;28;20242;-64
2023/12/10 02:26:02;;;;;;;21.67;4.13;;;;;;;;;;5032632;28;20255;-64
2023/12/10 02:28:29;;;;;;;22.77;3.40;;;;;;;;;;5032465;28;20838;-63
2023/12/10 02:30:57;;;;;;;14.70;3.27;;;;;;;;;;5041432;28;20191;-66
2023/12/10 02:33:24;;;;;;;11.53;3.10;;;;;;;;;;5035104;28;20705;-64
2023/12/10 02:35:51;;;;;;;18.30;2.97;;;;;;;;;;5044241;28;20215;-65
2023/12/10 02:38:21;;;;;;;18.47;2.90;;;;;;;;;;5045653;28;20196;-65
2023/12/10 02:40:48;;;;;;;14.87;2.37;;;;;;;;;;5040762;28;20705;-65
2023/12/10 02:43:16;;;;;;;12.73;2.40;;;;;;;;;;5045047;28;20231;-66
2023/12/10 02:45:43;;;;;;;11.13;2.40;;;;;;;;;;5045809;28;20269;-65
2023/12/10 02:48:10;;;;;;;17.63;2.13;;;;;;;;;;5045009;28;20202;-65
2023/12/10 02:50:37;;;;;;;12.40;3.10;;;;;;;;;;5044888;28;20204;-65
2023/12/10 02:53:04;;;;;;;12.67;2.10;;;;;;;;;;5045518;28;20207;-65
2023/12/10 02:55:31;;;;;;;16.03;2.80;;;;;;;;;;5041664;28;20207;-65
2023/12/10 02:57:58;;;;;;;14.87;2.87;;;;;;;;;;5039242;28;20227;-65
2023/12/10 03:00:27;;;;;;;11.80;1.63;;;;;;;;;;5042618;28;20231;-65
2023/12/10 03:02:54;;;;;;;15.13;2.50;;;;;;;;;;5032004;28;20212;-65
2023/12/10 03:05:21;;;;;;;13.47;2.43;;;;;;;;;;5043459;28;20214;-65
2023/12/10 03:07:48;;;;;;;13.33;2.27;;;;;;;;;;5038033;28;20609;-65
2023/12/10 03:10:15;;;;;;;12.40;1.97;;;;;;;;;;5041650;28;20204;-65
2023/12/10 03:12:41;;;;;;;19.40;2.57;;;;;;;;;;5037534;28;20199;-65
2023/12/10 03:15:08;;;;;;;9.40;2.53;;;;;;;;;;5029187;28;20645;-65
2023/12/10 03:17:37;;;;;;;16.33;3.27;;;;;;;;;;5036932;28;20628;-65
2023/12/10 03:20:05;;;;;;;11.10;1.87;;;;;;;;;;5038231;28;20200;-65
2023/12/10 03:22:32;;;;;;;12.20;2.30;;;;;;;;;;5041730;28;20222;-65
2023/12/10 03:24:59;;;;;;;5.37;1.30;;;;;;;;;;5046933;28;20383;-65
2023/12/10 03:27:26;;;;;;;11.80;1.97;;;;;;;;;;5043644;28;20547;-65
2023/12/10 03:29:53;;;;;;;8.37;1.60;;;;;;;;;;5029103;28;20212;-65
2023/12/10 03:32:20;;;;;;;11.73;2.00;;;;;;;;;;5044845;28;20215;-65
2023/12/10 03:34:48;;;;;;;8.30;2.43;;;;;;;;;;5037140;28;20677;-65
2023/12/10 03:37:15;;;;;;;10.70;1.87;;;;;;;;;;5039012;28;20203;-65
2023/12/10 03:39:42;;;;;;;9.17;1.80;;;;;;;;;;5045362;28;20215;-65
2023/12/10 03:42:09;;;;;;;11.27;1.47;;;;;;;;;;5031306;28;20713;-65
2023/12/10 03:44:36;;;;;;;6.80;1.33;;;;;;;;;;5042772;28;20212;-65
2023/12/10 03:47:03;;;;;;;10.20;1.50;;;;;;;;;;5032159;28;20208;-65
2023/12/10 03:49:30;;;;;;;5.77;1.60;;;;;;;;;;5048514;28;20204;-65
2023/12/10 03:51:59;;;;;;;7.90;1.93;;;;;;;;;;5047711;28;20215;-64
2023/12/10 03:54:26;;;;;;;8.93;1.83;;;;;;;;;;5047773;28;20582;-65
2023/12/10 03:56:53;;;;;;;9.47;1.40;;;;;;;;;;5045969;28;20464;-64
2023/12/10 03:59:20;;;;;;;9.60;1.27;;;;;;;;;;5046961;28;20549;-65
2023/12/10 04:01:47;;;;;;;7.87;1.43;;;;;;;;;;5035536;28;20228;-65
2023/12/10 04:04:14;;;;;;;3.53;1.20;;;;;;;;;;5048021;28;20214;-65
2023/12/10 04:06:41;;;;;;;9.37;1.40;;;;;;;;;;5045679;28;20197;-65
2023/12/10 04:09:10;;;;;;;5.63;1.20;;;;;;;;;;5043231;28;20218;-65
2023/12/10 04:11:37;;;;;;;6.93;1.70;;;;;;;;;;5030590;28;20323;-64
2023/12/10 04:14:04;;;;;;;3.93;1.00;;;;;;;;;;5031528;28;20299;-65
2023/12/10 04:16:32;;;;;;;5.13;0.90;;;;;;;;;;5030824;28;20243;-64
2023/12/10 04:18:59;;;;;;;6.53;1.13;;;;;;;;;;5042907;28;20298;-65
2023/12/10 04:21:26;;;;;;;4.73;1.43;;;;;;;;;;5045429;28;20427;-65
2023/12/10 04:23:53;;;;;;;4.77;1.10;;;;;;;;;;5045550;28;20666;-65
2023/12/10 04:26:22;;;;;;;9.10;1.00;;;;;;;;;;5044141;28;20207;-65
2023/12/10 04:28:49;;;;;;;8.73;1.60;;;;;;;;;;5028988;28;20232;-65
2023/12/10 04:31:16;;;;;;;8.17;1.80;;;;;;;;;;5037188;28;20211;-64
2023/12/10 04:33:45;;;;;;;11.07;1.50;;;;;;;;;;5043631;28;20208;-65
2023/12/10 04:36:13;;;;;;;6.20;0.97;;;;;;;;;;5041999;28;20236;-65
2023/12/10 04:38:40;;;;;;;11.87;1.80;;;;;;;;;;5045868;28;20211;-65
2023/12/10 04:41:07;;;;;;;4.87;1.23;;;;;;;;;;5037393;28;20220;-65
2023/12/10 04:43:36;;;;;;;9.83;1.40;;;;;;;;;;5035520;28;20211;-65
2023/12/10 04:46:03;;;;;;;7.53;1.60;;;;;;;;;;5044493;28;20669;-65
2023/12/10 04:48:30;;;;;;;4.57;1.50;;;;;;;;;;5040207;28;20208;-65
2023/12/10 04:50:57;;;;;;;11.03;1.97;;;;;;;;;;5033719;28;20666;-65
2023/12/10 04:53:24;;;;;;;6.37;1.20;;;;;;;;;;5046596;28;20208;-65
2023/12/10 04:55:51;;;;;;;11.17;1.93;;;;;;;;;;5034412;28;20219;-65
2023/12/10 04:58:18;;;;;;;4.70;1.20;;;;;;;;;;5046608;28;20211;-66
2023/12/10 05:00:47;;;;;;;9.03;1.60;;;;;;;;;;5044960;28;20222;-65
2023/12/10 05:03:14;;;;;;;9.37;1.67;;;;;;;;;;5042853;28;20204;-65
2023/12/10 05:05:41;;;;;;;10.23;1.80;;;;;;;;;;5039496;28;20204;-64
2023/12/10 05:08:08;;;;;;;10.77;1.70;;;;;;;;;;5043346;28;20527;-65
2023/12/10 05:10:35;;;;;;;7.70;1.63;;;;;;;;;;5031655;28;20208;-64
2023/12/10 05:13:02;;;;;;;9.10;1.60;;;;;;;;;;5032870;28;20200;-65
2023/12/10 05:15:29;;;;;;;10.13;2.13;;;;;;;;;;5041465;28;20579;-65
2023/12/10 05:17:57;;;;;;;8.57;1.90;;;;;;;;;;5046986;28;20510;-65
2023/12/10 05:20:24;;;;;;;8.10;1.67;;;;;;;;;;5038553;28;20204;-64
2023/12/10 05:22:51;;;;;;;6.63;1.70;;;;;;;;;;5028064;28;20216;-65
2023/12/10 05:25:18;;;;;;;9.80;1.90;;;;;;;;;;5031340;28;20195;-65
2023/12/10 05:27:45;;;;;;;11.17;1.43;;;;;;;;;;5046580;28;20200;-65
2023/12/10 05:30:13;;;;;;;10.07;1.97;;;;;;;;;;5040539;28;20207;-65
2023/12/10 05:32:40;;;;;;;15.57;2.40;;;;;;;;;;5030951;28;20212;-65
2023/12/10 05:35:09;;;;;;;13.37;2.07;;;;;;;;;;5044991;28;20926;-65
2023/12/10 05:37:36;;;;;;;11.37;2.57;;;;;;;;;;5031412;28;20207;-65
2023/12/10 05:40:03;;;;;;;10.30;1.83;;;;;;;;;;5026998;28;20704;-65
2023/12/10 05:42:30;;;;;;;6.27;1.37;;;;;;;;;;5035518;28;20228;-65
2023/12/10 05:44:58;;;;;;;10.00;1.70;;;;;;;;;;5043056;28;20207;-65
2023/12/10 05:47:25;;;;;;;13.50;1.83;;;;;;;;;;5046129;28;20214;-65
2023/12/10 05:49:55;;;;;;;12.60;2.50;;;;;;;;;;5046788;28;20212;-65
2023/12/10 05:52:23;;;;;;;12.77;2.10;;;;;;;;;;5045273;28;20199;-65
2023/12/10 05:54:50;;;;;;;10.30;2.07;;;;;;;;;;5036301;28;20674;-65
2023/12/10 05:57:17;;;;;;;7.60;1.60;;;;;;;;;;5027167;28;20200;-65
2023/12/10 05:59:44;;;;;;;9.37;1.53;;;;;;;;;;5044156;28;20216;-64
2023/12/10 06:02:11;;;;;;;14.93;2.70;;;;;;;;;;5035976;28;20232;-65
2023/12/10 06:04:39;;;;;;;8.60;1.67;;;;;;;;;;5033455;28;20200;-65
2023/12/10 06:07:06;;;;;;;12.87;2.40;;;;;;;;;;5034949;28;20558;-66
2023/12/10 06:09:34;;;;;;;9.47;2.27;;;;;;;;;;5036006;28;20207;-65
2023/12/10 06:12:01;;;;;;;13.70;1.87;;;;;;;;;;5044351;28;20258;-65
2023/12/10 06:14:28;;;;;;;9.57;1.40;;;;;;;;;;5033401;28;20207;-65
2023/12/10 06:16:55;;;;;;;8.23;1.30;;;;;;;;;;5028170;28;20244;-66
2023/12/10 06:19:22;;;;;;;8.53;1.73;;;;;;;;;;5044431;28;20688;-65
2023/12/10 06:21:49;;;;;;;7.63;1.90;;;;;;;;;;5026579;28;20232;-65
2023/12/10 06:24:16;;;;;;;4.83;1.63;;;;;;;;;;5035273;28;20206;-64
2023/12/10 06:26:45;;;;;;;8.70;1.73;;;;;;;;;;5043288;28;20331;-65
2023/12/10 06:29:12;;;;;;;11.73;1.83;;;;;;;;;;5043805;28;20215;-64
2023/12/10 06:31:39;;;;;;;11.17;1.80;;;;;;;;;;5043907;28;20242;-64
2023/12/10 06:34:06;;;;;;;11.60;2.27;;;;;;;;;;5041225;28;20215;-65
2023/12/10 06:36:35;;;;;;;9.57;1.60;;;;;;;;;;5038377;28;20201;-65
2023/12/10 06:39:02;;;;;;;12.90;2.90;;;;;;;;;;5035481;28;20216;-65
2023/12/10 06:41:29;;;;;;;12.30;2.17;;;;;;;;;;5048964;28;20231;-65
2023/12/10 06:43:57;;;;;;;12.10;2.63;;;;;;;;;;5031180;28;20619;-65
2023/12/10 06:46:24;;;;;;;15.10;2.87;;;;;;;;;;5029913;28;20564;-65
2023/12/10 06:48:51;;;;;;;9.13;2.30;;;;;;;;;;5043449;28;20284;-65
2023/12/10 06:51:18;;;;;;;8.87;2.53;;;;;;;;;;5043652;28;20774;-66
2023/12/10 06:53:45;;;;;;;11.13;2.20;;;;;;;;;;5037859;28;20208;-65
2023/12/10 06:56:12;;;;;;;13.30;2.30;;;;;;;;;;5048543;28;20334;-64
2023/12/10 06:58:40;;;;;;;7.90;1.57;;;;;;;;;;5048711;28;20212;-64
2023/12/10 07:01:08;;;;;;;13.43;2.17;;;;;;;;;;5046974;28;20549;-64
2023/12/10 07:03:35;;;;;;;14.90;2.70;;;;;;;;;;5042131;28;20212;-64
2023/12/10 07:06:03;;;;;;;12.00;2.67;;;;;;;;;;5036558;28;20207;-64
2023/12/10 07:08:31;;;;;;;6.47;1.53;;;;;;;;;;5044127;28;20207;-64
2023/12/10 07:10:58;;;;;;;10.07;1.60;;;;;;;;;;5029773;28;20228;-64
2023/12/10 07:13:25;;;;;;;6.27;1.90;;;;;;;;;;5032475;28;20213;-64
2023/12/10 07:15:52;;;;;;;14.00;1.57;;;;;;;;;;5028687;28;20610;-64
2023/12/10 07:18:20;;;;;;;12.50;1.97;;;;;;;;;;5041611;28;20240;-64
2023/12/10 07:20:47;;;;;;;10.83;2.00;;;;;;;;;;5030666;28;20208;-64
2023/12/10 07:23:14;;;;;;;13.50;2.00;;;;;;;;;;5034982;28;20226;-64
2023/12/10 07:25:41;;;;;;;9.50;2.00;;;;;;;;;;5046791;28;20203;-65
2023/12/10 07:28:09;;;;;;;11.00;1.77;;;;;;;;;;5036433;28;20884;-64
2023/12/10 07:30:36;;;;;;;10.30;2.33;;;;;;;;;;5049030;28;20254;-64
2023/12/10 07:33:03;;;;;;;12.33;1.97;;;;;;;;;;5031229;28;20295;-65
2023/12/10 07:35:31;;;;;;;9.70;1.90;;;;;;;;;;5039623;28;20737;-64
2023/12/10 07:37:58;;;;;;;6.13;1.13;;;;;;;;;;5040439;28;20207;-65
2023/12/10 07:40:25;;;;;;;11.13;2.23;;;;;;;;;;5036863;28;20227;-64
2023/12/10 07:42:52;;;;;;;7.10;1.63;;;;;;;;;;5044389;28;20232;-64
2023/12/10 07:45:19;;;;;;;6.97;1.80;;;;;;;;;;5039822;28;20848;-65
2023/12/10 07:47:46;;;;;;;12.97;2.20;;;;;;;;;;5047934;28;20214;-65
2023/12/10 07:50:14;;;;;;;9.37;1.47;;;;;;;;;;5031402;28;20211;-64
2023/12/10 07:52:42;;;;;;;7.60;1.50;;;;;;;;;;5039881;28;20682;-65
2023/12/10 07:55:09;;;;;;;8.37;2.10;;;;;;;;;;5046906;28;20192;-64
2023/12/10 07:57:36;;;;;;;6.13;1.63;;;;;;;;;;5047661;28;20218;-65
2023/12/10 08:00:05;;;;;;;11.77;2.30;;;;;;;;;;5045525;28;20219;-65
2023/12/10 08:02:32;;;;;;;7.37;2.23;;;;;;;;;;5035943;28;20232;-64
2023/12/10 08:04:59;;;;;;;9.00;1.63;;;;;;;;;;5029398;28;20243;-64
2023/12/10 08:07:26;;;;;;;14.40;1.90;;;;;;;;;;5031631;28;20205;-65
2023/12/10 08:09:55;;;;;;;10.53;2.20;;;;;;;;;;5044720;28;20307;-65
2023/12/10 08:12:22;;;;;;;8.43;1.63;;;;;;;;;;5038768;28;20299;-63
2023/12/10 08:14:49;;;;;;;10.87;2.10;;;;;;;;;;5047774;28;20226;-64
2023/12/10 08:17:16;;;;;;;8.83;1.83;;;;;;;;;;5033085;28;20243;-64
2023/12/10 08:19:43;;;;;;;8.03;1.73;;;;;;;;;;5036894;28;20211;-64
2023/12/10 08:22:13;;;;;;;6.33;1.80;;;;;;;;;;5047124;28;20238;-64
2023/12/10 08:24:40;;;;;;;14.47;2.23;;;;;;;;;;5030861;28;20219;-64
2023/12/10 08:27:09;;;;;;;7.10;1.87;;;;;;;;;;5031124;28;20239;-64
2023/12/10 08:29:36;;;;;;;6.60;1.73;;;;;;;;;;5038679;28;20588;-63
2023/12/10 08:32:03;;;;;;;9.67;2.10;;;;;;;;;;5044195;28;20200;-64
2023/12/10 08:34:30;;;;;;;11.30;1.80;;;;;;;;;;5033339;28;20205;-65
2023/12/10 08:36:57;;;;;;;12.40;2.23;;;;;;;;;;5033856;28;20228;-64
2023/12/10 08:39:24;;;;;;;15.03;1.63;;;;;;;;;;5028568;28;20195;-64
2023/12/10 08:41:51;;;;;;;9.13;2.20;;;;;;;;;;5039167;28;20196;-67
2023/12/10 08:44:19;;;;;;;7.53;1.53;;;;;;;;;;5027842;28;20216;-64
2023/12/10 08:46:46;;;;;;;7.83;1.50;;;;;;;;;;5043229;28;20211;-64
2023/12/10 08:49:13;;;;;;;13.83;1.80;;;;;;;;;;5034418;28;20674;-64
2023/12/10 08:51:40;;;;;;;8.10;2.03;;;;;;;;;;5028252;28;20261;-64
2023/12/10 08:54:08;;;;;;;7.33;1.47;;;;;;;;;;5047703;28;20273;-64
2023/12/10 08:56:35;;;;;;;7.90;2.10;;;;;;;;;;5046862;28;20218;-64
2023/12/10 08:59:03;;;;;;;5.93;1.83;;;;;;;;;;5044662;28;20212;-65
2023/12/10 09:01:31;;;;;;;7.60;1.83;;;;;;;;;;5044439;28;20299;-65
2023/12/10 09:03:59;;;;;;;12.27;2.17;;;;;;;;;;5042276;28;20223;-66
2023/12/10 09:06:25;;;;;;;6.40;1.63;;;;;;;;;;5026705;28;20580;-65
2023/12/10 09:08:52;;;;;;;9.23;1.60;;;;;;;;;;5028606;28;20209;-66
2023/12/10 09:11:19;;;;;;;8.43;2.03;;;;;;;;;;5027835;28;20216;-63
2023/12/10 09:13:46;;;;;;;11.67;1.60;;;;;;;;;;5038452;28;20204;-66
2023/12/10 09:16:13;;;;;;;8.90;1.50;;;;;;;;;;5040996;28;20215;-65
2023/12/10 09:18:43;;;;;;;9.17;2.10;;;;;;;;;;5046098;28;20196;-66
2023/12/10 09:21:10;;;;;;;17.17;4.53;;;;;;;;;;5042478;28;20282;-66
2023/12/10 09:23:37;;;;;;;7.30;1.73;;;;;;;;;;5042783;28;20228;-66
2023/12/10 09:26:05;;;;;;;12.00;1.47;;;;;;;;;;5030943;28;20666;-66
2023/12/10 09:28:32;;;;;;;6.23;1.30;;;;;;;;;;5027345;28;20223;-65
2023/12/10 09:30:59;;;;;;;5.97;2.03;;;;;;;;;;5031590;28;20219;-66
2023/12/10 09:33:26;;;;;;;7.20;1.57;;;;;;;;;;5042867;28;20212;-66
2023/12/10 09:35:54;;;;;;;10.67;2.03;;;;;;;;;;5037360;28;20211;-66
2023/12/10 09:38:21;;;;;;;8.17;1.67;;;;;;;;;;5035594;28;20662;-66
2023/12/10 09:40:48;;;;;;;6.60;1.60;;;;;;;;;;5033849;28;20200;-66
2023/12/10 09:43:15;;;;;;;8.73;1.60;;;;;;;;;;5030565;28;20588;-66
2023/12/10 09:45:42;;;;;;;8.03;1.63;;;;;;;;;;5023993;28;20215;-66
2023/12/10 09:48:09;;;;;;;7.40;1.13;;;;;;;;;;5026964;28;20212;-66
2023/12/10 09:50:38;;;;;;;9.60;1.40;;;;;;;;;;5027171;28;20208;-66
2023/12/10 09:53:07;;;;;;;8.43;1.40;;;;;;;;;;5032406;28;20795;-66
2023/12/10 09:55:35;;;;;;;8.10;1.73;;;;;;;;;;5046801;28;20577;-66
2023/12/10 09:58:02;;;;;;;5.73;1.63;;;;;;;;;;5037597;28;21075;-64
2023/12/10 10:00:29;;;;;;;10.87;1.20;;;;;;;;;;5023621;28;20212;-63
2023/12/10 10:03:01;;;;;;;5.67;1.60;;;;;;;;;;5037215;28;20227;-64
2023/12/10 10:05:28;;;;;;;7.10;1.53;;;;;;;;;;5044485;28;20635;-64
2023/12/10 10:07:55;;;;;;;7.73;1.67;;;;;;;;;;5044658;28;20261;-63
2023/12/10 10:10:25;;;;;;;7.20;1.80;;;;;;;;;;5025888;28;20236;-66
2023/12/10 10:12:52;;;;;;;5.67;1.70;;;;;;;;;;5046143;28;20628;-67
2023/12/10 10:15:27;;;;;;;6.17;1.40;;;;;;;;;;5045354;28;20315;-67
2023/12/10 10:17:54;;;;;;;11.17;1.70;;;;;;;;;;5044749;28;21006;-68
2023/12/10 10:20:22;;;;;;;13.07;1.73;;;;;;;;;;5030622;28;20227;-64
2023/12/10 10:22:49;;;;;;;3.30;1.17;;;;;;;;;;5039591;28;20228;-65
2023/12/10 10:25:16;;;;;;;6.93;1.47;;;;;;;;;;5041733;28;20834;-65
2023/12/10 10:27:45;;;;;;;9.83;1.63;;;;;;;;;;5046498;28;20768;-67
2023/12/10 10:30:12;;;;;;;8.50;1.73;;;;;;;;;;5046913;28;20204;-65
2023/12/10 10:32:39;;;;;;;8.27;1.65;;;;;;;;;;5037705;28;20209;-65
2023/12/10 10:35:08;;;;;;;9.82;3.08;;;;;;;;;;5048858;28;20199;-65
2023/12/10 10:37:35;;;;;;;10.68;3.25;;;;;;;;;;5041633;28;20611;-64
2023/12/10 10:40:03;;;;;;;7.53;2.38;;;;;;;;;;5044957;28;20623;-64
2023/12/10 10:42:30;;;;;;;5.63;1.90;;;;;;;;;;5029827;28;20215;-65
2023/12/10 10:44:59;;;;;;;7.10;1.48;;;;;;;;;;5030194;28;20219;-67
2023/12/10 10:47:27;;;;;;;8.25;1.92;;;;;;;;;;5040534;28;20203;-65
2023/12/10 10:49:55;;;;;;;7.05;1.33;;;;;;;;;;5047155;28;20227;-67
2023/12/10 10:52:24;;;;;;;7.72;1.70;;;;;;;;;;5047556;28;20236;-67
2023/12/10 10:54:53;;;;;;;7.38;1.55;;;;;;;;;;5047693;28;20208;-65
2023/12/10 10:57:28;;;;;;;4.10;1.42;;;;;;;;;;5049080;28;20207;-67
2023/12/10 10:59:55;;;;;;;8.85;1.58;;;;;;;;;;5036250;28;20204;-67
2023/12/10 11:02:24;;;;;;;8.38;1.30;;;;;;;;;;5042904;28;20208;-66
2023/12/10 11:04:51;;;;;;;4.65;1.23;;;;;;;;;;5047916;28;20219;-66
2023/12/10 11:07:20;;;;;;;6.38;1.55;;;;;;;;;;5048394;28;20216;-67
2023/12/10 11:09:57;;;;;;;9.80;1.45;;;;;;;;;;5046999;28;20584;-66
2023/12/10 11:12:39;;;;;;;8.77;1.52;;;;;;;;;;5044741;28;20216;-66
2023/12/10 11:15:07;;;;;;;3.40;1.00;;;;;;;;;;5030035;28;20499;-65
2023/12/10 11:17:35;;;;;;;10.73;1.83;;;;;;;;;;5046201;28;20250;-66
2023/12/10 11:20:03;;;;;;;11.52;1.83;;;;;;;;;;5047281;28;20216;-70
2023/12/10 11:22:31;;;;;;;6.40;1.02;;;;;;;;;;5046474;28;20211;-66
2023/12/10 11:25:00;;;;;;;5.82;1.55;;;;;;;;;;5047981;28;20215;-64
2023/12/10 11:27:27;;;;;;;5.75;1.40;;;;;;;;;;5034650;28;20208;-67
2023/12/10 11:29:54;;;;;;;7.65;1.30;;;;;;;;;;5040716;28;20211;-67
2023/12/10 11:32:21;;;;;;;7.68;1.88;;;;;;;;;;5038714;28;20204;-66
2023/12/10 11:34:50;;;;;;;7.18;1.50;;;;;;;;;;5038099;28;20195;-67
2023/12/10 11:37:17;;;;;;;5.28;1.05;;;;;;;;;;5035035;28;20224;-67
2023/12/10 11:39:46;;;;;;;11.60;1.88;;;;;;;;;;5041712;28;20823;-67
2023/12/10 11:42:13;;;;;;;9.48;2.22;;;;;;;;;;5035763;28;20549;-66
2023/12/10 11:44:40;;;;;;;13.07;2.33;;;;;;;;;;5039696;28;20247;-67
2023/12/10 11:47:07;;;;;;;9.67;1.70;;;;;;;;;;5028766;28;20204;-64
2023/12/10 11:49:35;;;;;;;12.18;2.13;;;;;;;;;;5047119;28;20200;-67
2023/12/10 11:52:04;;;;;;;10.93;1.60;;;;;;;;;;5046135;28;20207;-65
2023/12/10 11:54:31;;;;;;;7.68;1.75;;;;;;;;;;5048386;28;20215;-64
2023/12/10 11:56:59;;;;;;;6.60;1.23;;;;;;;;;;5039438;28;20617;-65
2023/12/10 11:59:26;;;;;;;4.93;1.30;;;;;;;;;;5046307;28;20208;-66
2023/12/10 12:01:53;;;;;;;4.63;1.17;;;;;;;;;;5036798;28;20204;-65
2023/12/10 12:04:20;;;;;;;9.17;2.20;;;;;;;;;;5034053;28;20228;-65
2023/12/10 12:06:48;;;;;;;4.10;1.57;;;;;;;;;;5032168;28;20208;-65
2023/12/10 12:09:19;;;;;;;10.20;2.10;;;;;;;;;;5027699;28;20710;-65
2023/12/10 12:11:46;;;;;;;11.50;3.10;;;;;;;;;;5042766;28;20219;-65
2023/12/10 12:14:16;;;;;;;7.53;2.20;;;;;;;;;;5032835;28;20203;-67
2023/12/10 12:16:43;;;;;;;9.50;1.87;;;;;;;;;;5044949;28;20289;-65
2023/12/10 12:19:10;;;;;;;7.00;1.40;;;;;;;;;;5044501;28;20215;-65
2023/12/10 12:21:37;;;;;;;6.80;1.97;;;;;;;;;;5041936;28;20254;-65
2023/12/10 12:24:05;;;;;;;5.43;2.47;;;;;;;;;;5041191;28;20224;-68
2023/12/10 12:26:33;;;;;;;7.53;2.03;;;;;;;;;;5028167;28;20208;-66
2023/12/10 12:29:00;;;;;;;6.37;2.17;;;;;;;;;;5045494;28;20673;-65
2023/12/10 12:31:27;;;;;;;9.47;1.60;;;;;;;;;;5045211;28;20216;-65
2023/12/10 12:33:54;;;;;;;8.80;1.80;;;;;;;;;;5038678;28;20204;-65
2023/12/10 12:36:21;;;;;;;4.47;1.17;;;;;;;;;;5047406;28;20626;-66
2023/12/10 12:38:48;;;;;;;7.20;1.47;;;;;;;;;;5030013;28;20204;-65
2023/12/10 12:41:15;;;;;;;14.13;2.40;;;;;;;;;;5045181;28;20207;-65
2023/12/10 12:43:43;;;;;;;7.97;1.57;;;;;;;;;;5035205;28;20705;-65
2023/12/10 12:46:10;;;;;;;10.37;1.87;;;;;;;;;;5041565;28;20212;-64
2023/12/10 12:48:37;;;;;;;9.97;2.20;;;;;;;;;;5045481;28;20215;-64
2023/12/10 12:51:05;;;;;;;8.97;1.93;;;;;;;;;;5047244;28;20216;-64
2023/12/10 12:53:32;;;;;;;13.07;2.40;;;;;;;;;;5045681;28;20230;-65
2023/12/10 12:55:59;;;;;;;6.00;1.80;;;;;;;;;;5047047;28;20207;-68
2023/12/10 12:58:26;;;;;;;16.00;2.43;;;;;;;;;;5042009;28;20597;-64
2023/12/10 13:00:54;;;;;;;10.97;1.53;;;;;;;;;;5043663;28;20214;-65
2023/12/10 13:03:21;;;;;;;9.27;2.30;;;;;;;;;;5038447;28;20195;-64
2023/12/10 13:05:48;;;;;;;13.67;2.77;;;;;;;;;;5043751;28;20219;-63
2023/12/10 13:08:15;;;;;;;7.53;1.73;;;;;;;;;;5031677;28;20208;-63
2023/12/10 13:10:42;;;;;;;10.17;1.87;;;;;;;;;;5039732;28;20696;-63
2023/12/10 13:13:09;;;;;;;9.53;1.93;;;;;;;;;;5038180;28;20203;-63
2023/12/10 13:15:36;;;;;;;6.97;1.70;;;;;;;;;;5033646;28;20215;-67
2023/12/10 13:18:05;;;;;;;7.57;1.30;;;;;;;;;;5032895;28;20242;-68
2023/12/10 13:20:33;;;;;;;8.43;2.60;;;;;;;;;;5035525;28;20211;-65
2023/12/10 13:23:00;;;;;;;11.53;1.93;;;;;;;;;;5028183;28;20697;-66
2023/12/10 13:25:27;;;;;;;5.77;1.87;;;;;;;;;;5025516;28;20238;-66
2023/12/10 13:27:54;;;;;;;6.23;1.47;;;;;;;;;;5025909;28;20204;-68
2023/12/10 13:30:21;;;;;;;10.50;2.07;;;;;;;;;;5034997;28;20212;-62
2023/12/10 13:32:48;;;;;;;6.53;2.03;;;;;;;;;;5032910;28;20200;-65
2023/12/10 13:35:17;;;;;;;6.93;1.87;;;;;;;;;;5028923;28;20228;-65
2023/12/10 13:37:44;;;;;;;8.90;2.10;;;;;;;;;;5037341;28;20212;-65
2023/12/10 13:40:13;;;;;;;19.47;2.00;;;;;;;;;;5046616;28;20709;-65
2023/12/10 13:42:41;;;;;;;10.60;2.37;;;;;;;;;;5032861;28;20204;-64
2023/12/10 13:45:09;;;;;;;5.80;1.67;;;;;;;;;;5026331;28;20220;-64
2023/12/10 13:47:36;;;;;;;7.40;1.77;;;;;;;;;;5026483;28;20679;-64
2023/12/10 13:50:03;;;;;;;9.10;1.63;;;;;;;;;;5027072;28;20231;-64
2023/12/10 13:52:31;;;;;;;7.60;1.93;;;;;;;;;;5033425;28;20235;-64
2023/12/10 13:54:58;;;;;;;7.80;1.87;;;;;;;;;;5026950;28;20200;-65
2023/12/10 13:57:26;;;;;;;12.10;2.50;;;;;;;;;;5028565;28;20215;-64
2023/12/10 13:59:53;;;;;;;8.27;2.03;;;;;;;;;;5038596;28;20209;-66
2023/12/10 14:02:20;;;;;;;9.97;2.50;;;;;;;;;;5031293;28;20562;-66
2023/12/10 14:04:48;;;;;;;15.47;2.07;;;;;;;;;;5046361;28;20243;-64
2023/12/10 14:07:15;;;;;;;11.60;2.17;;;;;;;;;;5046173;28;20204;-64
2023/12/10 14:09:43;;;;;;;12.83;2.30;;;;;;;;;;5044624;28;20200;-66
2023/12/10 14:12:12;;;;;;;9.77;2.43;;;;;;;;;;5038641;28;20671;-64
2023/12/10 14:14:39;;;;;;;9.67;1.97;;;;;;;;;;5038435;28;20677;-65
2023/12/10 14:17:07;;;;;;;10.23;2.20;;;;;;;;;;5042557;28;20237;-64
2023/12/10 14:19:34;;;;;;;7.67;2.37;;;;;;;;;;5028764;28;20749;-64
2023/12/10 14:22:01;;;;;;;12.73;2.00;;;;;;;;;;5026349;28;20209;-62
2023/12/10 14:24:28;;;;;;;10.07;2.20;;;;;;;;;;5041806;28;20215;-64
2023/12/10 14:26:56;;;;;;;11.37;2.43;;;;;;;;;;5029907;28;20200;-64
2023/12/10 14:29:23;;;;;;;7.63;2.23;;;;;;;;;;5028736;28;20236;-65
2023/12/10 14:31:50;;;;;;;16.80;2.53;;;;;;;;;;5035911;28;20208;-64
2023/12/10 14:34:17;;;;;;;11.67;2.00;;;;;;;;;;5042788;28;20199;-64
2023/12/10 14:36:44;;;;;;;14.30;2.20;;;;;;;;;;5045786;28;20204;-64